Time;durP1;ratioP1;P1;durP2;ratioP2;P2;SDS_P1;SDS_P2;PMS_P1;PMS_P2;Temp;Humidity;BMP_temperature;BMP_pressure;BME280_temperature;BME280_humidity;BME280_pressure;Samples;Min_cycle;Max_cycle;Signal;HPM_P1;HPM_P2
2024/03/27 00:01:46;;;;;;;9.68;4.60;;;;;;;10.94;100.00;98361.72;10457149;28;20032;-73
2024/03/27 00:06:46;;;;;;;5.07;4.25;;;;;;;10.98;100.00;98363.91;10459492;28;20464;-74
2024/03/27 00:11:49;;;;;;;7.35;4.28;;;;;;;10.98;100.00;98361.22;10459769;28;20053;-74
2024/03/27 00:16:50;;;;;;;11.85;4.20;;;;;;;10.96;100.00;98344.41;10460549;28;20037;-73
2024/03/27 00:21:50;;;;;;;4.30;3.45;;;;;;;10.88;100.00;98341.13;10456803;28;20448;-74
2024/03/27 00:26:50;;;;;;;12.60;5.38;;;;;;;10.87;100.00;98341.38;10474489;28;20043;-75
2024/03/27 00:31:51;;;;;;;4.07;3.67;;;;;;;10.95;100.00;98327.34;10460031;28;20043;-73
2024/03/27 00:36:51;;;;;;;10.68;4.13;;;;;;;11.00;100.00;98335.47;10457626;28;20402;-73
2024/03/27 00:41:52;;;;;;;5.80;4.10;;;;;;;11.04;100.00;98338.47;10457605;28;20028;-72
2024/03/27 00:46:52;;;;;;;7.10;4.75;;;;;;;11.11;100.00;98336.34;10457512;28;20068;-75
2024/03/27 00:51:52;;;;;;;4.65;3.10;;;;;;;11.03;100.00;98328.72;10456808;28;20028;-73
2024/03/27 00:56:53;;;;;;;4.25;3.58;;;;;;;11.04;100.00;98308.69;10473241;28;20040;-73
2024/03/27 01:01:53;;;;;;;8.00;3.72;;;;;;;11.07;100.00;98314.41;10457671;28;20090;-75
2024/03/27 01:06:54;;;;;;;2.95;2.65;;;;;;;11.12;100.00;98309.00;10455258;28;20072;-73
2024/03/27 01:11:54;;;;;;;9.70;3.60;;;;;;;11.14;100.00;98298.72;10437679;28;20498;-73
2024/03/27 01:16:55;;;;;;;3.30;2.35;;;;;;;11.20;100.00;98296.84;10456868;28;20426;-73
2024/03/27 01:21:55;;;;;;;5.00;3.30;;;;;;;11.25;100.00;98296.03;10423440;28;20041;-73
2024/03/27 01:26:55;;;;;;;3.58;3.28;;;;;;;11.27;100.00;98302.84;10457519;28;20465;-73
2024/03/27 01:31:56;;;;;;;8.75;4.28;;;;;;;11.23;100.00;98298.19;10456211;28;20051;-72
2024/03/27 01:36:56;;;;;;;3.08;2.78;;;;;;;11.28;100.00;98292.81;10463892;28;20029;-73
2024/03/27 01:41:57;;;;;;;2.72;2.53;;;;;;;11.41;100.00;98292.28;10462261;28;20478;-71
2024/03/27 01:46:57;;;;;;;4.20;2.13;;;;;;;11.49;100.00;98290.97;10464203;28;20072;-73
2024/03/27 01:51:58;;;;;;;8.38;2.15;;;;;;;11.50;100.00;98262.78;10463484;28;20029;-74
2024/03/27 01:56:58;;;;;;;8.85;3.90;;;;;;;11.61;100.00;98269.84;10446594;28;20461;-73
2024/03/27 02:01:59;;;;;;;7.43;3.13;;;;;;;11.61;100.00;98254.41;10478690;28;20033;-73
2024/03/27 02:06:59;;;;;;;6.07;3.58;;;;;;;11.55;100.00;98257.34;10462626;28;20387;-72
2024/03/27 02:12:00;;;;;;;3.50;2.17;;;;;;;11.47;100.00;98247.06;10461467;28;20413;-73
2024/03/27 02:17:00;;;;;;;10.68;2.92;;;;;;;11.22;100.00;98243.22;10461701;28;20048;-74
2024/03/27 02:22:00;;;;;;;6.90;1.88;;;;;;;11.18;100.00;98258.38;10462002;28;20036;-73
2024/03/27 02:27:01;;;;;;;2.03;1.90;;;;;;;11.21;100.00;98263.25;10444724;28;20024;-73
2024/03/27 02:32:02;;;;;;;3.75;3.05;;;;;;;11.16;100.00;98255.91;10461791;28;20110;-74
2024/03/27 02:37:02;;;;;;;7.15;3.35;;;;;;;11.20;100.00;98264.34;10462160;28;20063;-73
2024/03/27 02:42:02;;;;;;;3.85;2.95;;;;;;;11.14;100.00;98257.28;10461283;28;20203;-74
2024/03/27 02:47:03;;;;;;;7.95;3.95;;;;;;;11.14;100.00;98258.09;10442831;28;20040;-71
2024/03/27 02:52:03;;;;;;;8.65;3.33;;;;;;;11.02;100.00;98251.28;10474693;28;20125;-71
2024/03/27 02:57:04;;;;;;;5.32;3.22;;;;;;;10.97;100.00;98243.94;10459632;28;20021;-71
2024/03/27 03:02:04;;;;;;;5.70;3.17;;;;;;;10.90;100.00;98237.97;10459029;28;20036;-71
2024/03/27 03:07:05;;;;;;;5.75;3.42;;;;;;;10.97;100.00;98232.28;10460093;28;20083;-71
2024/03/27 03:12:05;;;;;;;5.75;4.78;;;;;;;10.94;100.00;98229.06;10460316;28;20048;-72
2024/03/27 03:17:06;;;;;;;10.20;4.25;;;;;;;10.95;100.00;98216.31;10459628;28;20041;-72
2024/03/27 03:22:06;;;;;;;4.43;4.13;;;;;;;10.93;100.00;98246.34;10460810;28;20382;-72
2024/03/27 03:27:07;;;;;;;4.22;2.90;;;;;;;10.20;100.00;98259.72;10458144;28;20032;-71
2024/03/27 03:32:07;;;;;;;6.50;3.03;;;;;;;9.70;100.00;98269.06;10458680;28;20067;-72
2024/03/27 03:37:07;;;;;;;5.38;2.30;;;;;;;9.46;100.00;98279.38;10457353;28;20029;-72
2024/03/27 03:42:08;;;;;;;3.63;2.78;;;;;;;9.28;100.00;98283.25;10459366;28;20087;-71
2024/03/27 03:47:08;;;;;;;5.07;2.60;;;;;;;9.21;100.00;98306.91;10459977;28;20090;-71
2024/03/27 03:52:09;;;;;;;7.65;3.45;;;;;;;9.00;100.00;98305.03;10457276;28;20067;-71
2024/03/27 03:57:09;;;;;;;4.60;3.55;;;;;;;8.92;100.00;98313.56;10456614;28;20067;-71
2024/03/27 04:02:10;;;;;;;7.95;2.92;;;;;;;8.75;100.00;98310.91;10456437;28;20040;-71
2024/03/27 04:07:10;;;;;;;16.55;3.83;;;;;;;8.61;100.00;98311.28;10455295;28;20032;-72
2024/03/27 04:12:11;;;;;;;8.30;3.05;;;;;;;8.51;100.00;98313.81;10456221;28;20456;-70
2024/03/27 04:17:11;;;;;;;7.47;2.78;;;;;;;8.41;100.00;98296.66;10456621;28;20052;-72
2024/03/27 04:22:12;;;;;;;11.25;3.05;;;;;;;8.34;100.00;98289.53;10456759;28;20085;-72
2024/03/27 04:27:12;;;;;;;12.25;3.70;;;;;;;8.38;100.00;98265.63;10455168;28;20376;-73
2024/03/27 04:32:12;;;;;;;17.50;3.30;;;;;;;8.48;100.00;98271.16;10455293;28;20033;-70
2024/03/27 04:37:13;;;;;;;13.07;3.22;;;;;;;8.50;100.00;98273.63;10455461;28;20345;-71
2024/03/27 04:42:16;;;;;;;6.07;2.83;;;;;;;8.43;100.00;98292.66;10454760;28;20037;-72
2024/03/27 04:47:16;;;;;;;4.05;2.90;;;;;;;8.37;100.00;98286.34;10453623;28;20044;-73
2024/03/27 04:52:16;;;;;;;8.38;2.67;;;;;;;8.32;100.00;98313.22;10455315;28;20373;-72
2024/03/27 04:57:17;;;;;;;3.60;3.22;;;;;;;8.34;100.00;98321.88;10455041;28;20096;-72
2024/03/27 05:02:17;;;;;;;12.48;3.05;;;;;;;8.33;100.00;98330.25;10455220;28;20099;-71
2024/03/27 05:07:18;;;;;;;11.57;3.35;;;;;;;8.33;100.00;98335.63;10455665;28;20037;-71
2024/03/27 05:12:18;;;;;;;19.70;4.03;;;;;;;8.33;100.00;98351.81;10462699;28;20160;-74
2024/03/27 05:17:18;;;;;;;13.23;2.72;;;;;;;8.38;100.00;98357.31;10463497;28;20372;-72
2024/03/27 05:22:26;;;;;;;6.30;2.50;;;;;;;8.33;100.00;98346.41;10466078;28;20029;-71
2024/03/27 05:27:26;;;;;;;5.30;1.92;;;;;;;8.35;100.00;98347.78;10479475;28;20037;-73
2024/03/27 05:32:27;;;;;;;6.53;2.45;;;;;;;8.36;100.00;98327.06;10478263;28;20040;-75
2024/03/27 05:37:28;;;;;;;8.05;3.00;;;;;;;8.34;100.00;98340.75;10461632;28;20032;-72
2024/03/27 05:42:29;;;;;;;3.45;2.67;;;;;;;8.30;100.00;98345.03;10461327;28;20373;-75
2024/03/27 05:47:30;;;;;;;5.25;1.73;;;;;;;8.23;100.00;98357.00;10463818;28;20159;-72
2024/03/27 05:52:30;;;;;;;7.32;2.05;;;;;;;8.36;100.00;98344.03;10462923;28;20111;-74
2024/03/27 05:57:30;;;;;;;4.13;2.90;;;;;;;8.31;100.00;98335.88;10461275;28;20025;-70
2024/03/27 06:02:31;;;;;;;14.60;3.10;;;;;;;8.36;100.00;98346.75;10461200;28;20083;-70
2024/03/27 06:07:31;;;;;;;3.92;2.58;;;;;;;8.41;100.00;98367.59;10462975;28;20112;-74
2024/03/27 06:12:32;;;;;;;9.73;2.90;;;;;;;8.37;100.00;98401.50;10469459;28;20063;-72
2024/03/27 06:17:32;;;;;;;7.95;1.80;;;;;;;8.47;100.00;98392.78;10470650;28;20032;-73
2024/03/27 06:22:32;;;;;;;5.80;2.63;;;;;;;8.47;100.00;98420.56;10462148;28;20036;-73
2024/03/27 06:27:33;;;;;;;5.28;4.72;;;;;;;8.58;100.00;98433.16;10460056;28;20041;-73
2024/03/27 06:32:33;;;;;;;12.05;5.90;;;;;;;8.63;100.00;98415.41;10460816;28;20029;-73
2024/03/27 06:37:34;;;;;;;8.07;4.32;;;;;;;8.60;100.00;98404.03;10459153;28;20033;-74
2024/03/27 06:42:34;;;;;;;6.18;4.55;;;;;;;8.52;100.00;98419.81;10460396;28;20063;-73
2024/03/27 06:47:34;;;;;;;5.03;3.50;;;;;;;8.34;100.00;98410.06;10458103;28;20021;-74
2024/03/27 06:52:35;;;;;;;9.43;3.03;;;;;;;8.27;100.00;98425.59;10458363;28;20033;-73
2024/03/27 06:57:36;;;;;;;4.50;2.97;;;;;;;8.07;100.00;98420.63;10459480;28;20033;-74
2024/03/27 07:02:36;;;;;;;5.00;2.67;;;;;;;8.24;100.00;98434.97;10459307;28;20036;-74
2024/03/27 07:07:37;;;;;;;4.97;2.67;;;;;;;8.16;100.00;98419.19;10459747;28;20021;-73
2024/03/27 07:12:37;;;;;;;4.00;3.20;;;;;;;8.38;100.00;98446.28;10458202;28;20460;-73
2024/03/27 07:17:37;;;;;;;9.10;3.83;;;;;;;8.56;100.00;98437.97;10458558;28;20021;-73
2024/03/27 07:22:38;;;;;;;9.52;3.28;;;;;;;8.68;100.00;98445.16;10458390;28;20088;-73
2024/03/27 07:27:38;;;;;;;3.10;2.88;;;;;;;8.78;100.00;98461.53;10456380;28;20036;-74
2024/03/27 07:32:39;;;;;;;6.50;3.10;;;;;;;9.02;100.00;98464.84;10457836;28;20055;-75
2024/03/27 07:37:39;;;;;;;3.17;2.88;;;;;;;9.05;100.00;98491.34;10457050;28;20090;-75
2024/03/27 07:42:39;;;;;;;5.20;4.13;;;;;;;8.92;100.00;98502.50;10458506;28;20036;-73
2024/03/27 07:47:40;;;;;;;7.05;4.22;;;;;;;8.95;100.00;98494.72;10457591;28;20427;-73
2024/03/27 07:52:40;;;;;;;4.57;4.15;;;;;;;9.07;100.00;98492.75;10473060;28;20181;-74
2024/03/27 07:57:41;;;;;;;5.75;4.07;;;;;;;9.13;100.00;98501.75;10456015;28;20449;-75
2024/03/27 08:02:41;;;;;;;12.05;5.28;;;;;;;9.09;100.00;98492.50;10456473;28;20029;-73
2024/03/27 08:07:41;;;;;;;9.15;4.57;;;;;;;9.10;100.00;98496.03;10456625;28;20033;-73
2024/03/27 08:12:42;;;;;;;13.73;4.97;;;;;;;9.14;100.00;98505.28;10457333;28;20060;-74
2024/03/27 08:17:42;;;;;;;10.07;6.15;;;;;;;9.11;100.00;98511.97;10456218;28;20124;-74
2024/03/27 08:22:42;;;;;;;9.52;5.80;;;;;;;9.15;100.00;98515.00;10456906;28;20064;-74
2024/03/27 08:27:43;;;;;;;12.80;6.03;;;;;;;9.40;100.00;98503.75;10455506;28;20067;-74
2024/03/27 08:32:44;;;;;;;10.35;8.05;;;;;;;9.48;100.00;98498.75;10455828;28;20040;-73
2024/03/27 08:37:44;;;;;;;12.10;7.82;;;;;;;9.71;100.00;98505.00;10455286;28;20029;-73
2024/03/27 08:42:44;;;;;;;15.27;7.72;;;;;;;10.00;100.00;98503.72;10456139;28;20063;-73
2024/03/27 08:47:45;;;;;;;9.88;7.38;;;;;;;10.12;100.00;98505.50;10455274;28;20033;-74
2024/03/27 08:52:46;;;;;;;8.07;7.25;;;;;;;10.18;100.00;98515.31;10453674;28;20071;-73
2024/03/27 08:57:47;;;;;;;8.50;6.07;;;;;;;10.33;100.00;98525.47;10454040;28;20025;-75
2024/03/27 09:02:50;;;;;;;5.28;4.75;;;;;;;10.59;100.00;98529.25;10456102;28;20441;-74
2024/03/27 09:07:51;;;;;;;3.95;3.65;;;;;;;10.56;100.00;98537.88;10456907;28;20411;-72
2024/03/27 09:12:51;;;;;;;5.05;4.55;;;;;;;10.36;100.00;98546.63;10455172;28;20045;-73
2024/03/27 09:17:52;;;;;;;9.65;5.10;;;;;;;10.29;100.00;98549.53;10455174;28;20021;-71
2024/03/27 09:22:52;;;;;;;5.88;3.83;;;;;;;10.30;100.00;98559.25;10454884;28;20460;-75
2024/03/27 09:27:52;;;;;;;6.05;4.32;;;;;;;10.57;100.00;98555.78;10454976;28;20029;-74
2024/03/27 09:32:53;;;;;;;4.65;4.25;;;;;;;10.59;100.00;98562.59;10454883;28;20061;-73
2024/03/27 09:37:55;;;;;;;6.30;5.80;;;;;;;10.52;100.00;98548.41;10455972;28;20029;-73
2024/03/27 09:42:55;;;;;;;3.92;3.63;;;;;;;10.79;100.00;98563.84;10455264;28;20025;-73
2024/03/27 09:47:56;;;;;;;4.20;3.85;;;;;;;10.79;100.00;98556.53;10453625;28;20491;-73
2024/03/27 09:52:56;;;;;;;4.03;3.72;;;;;;;10.86;100.00;98556.34;10454896;28;20071;-72
2024/03/27 09:57:59;;;;;;;5.05;4.35;;;;;;;11.00;100.00;98572.97;10461931;28;20017;-74
2024/03/27 10:03:00;;;;;;;3.70;3.40;;;;;;;11.15;100.00;98568.50;10445216;28;20024;-73
2024/03/27 10:08:03;;;;;;;6.18;3.35;;;;;;;11.14;100.00;98566.88;10462854;28;20033;-74
2024/03/27 10:13:03;;;;;;;4.45;3.83;;;;;;;10.89;100.00;98570.16;10462374;28;20084;-73
2024/03/27 10:18:04;;;;;;;4.55;4.15;;;;;;;11.00;100.00;98573.78;10461822;28;20375;-74
2024/03/27 10:23:04;;;;;;;6.97;4.05;;;;;;;10.95;100.00;98584.59;10460795;28;20028;-74
2024/03/27 10:28:08;;;;;;;5.00;4.30;;;;;;;10.81;100.00;98596.88;10461274;28;20059;-73
2024/03/27 10:33:08;;;;;;;6.90;3.67;;;;;;;10.59;100.00;98603.19;10463075;28;20024;-73
2024/03/27 10:38:08;;;;;;;4.50;3.80;;;;;;;10.73;100.00;98624.44;10462920;28;20025;-73
2024/03/27 10:43:21;;;;;;;4.25;3.85;;;;;;;10.88;100.00;98614.56;10462160;28;20037;-75
2024/03/27 10:48:22;;;;;;;4.88;4.47;;;;;;;10.75;100.00;98595.19;10461186;28;20032;-73
2024/03/27 10:53:22;;;;;;;5.93;5.32;;;;;;;10.75;100.00;98603.31;10461325;28;20040;-75
2024/03/27 10:58:22;;;;;;;5.30;4.80;;;;;;;10.84;100.00;98602.59;10460952;28;20368;-76
2024/03/27 11:03:26;;;;;;;6.60;5.60;;;;;;;10.67;100.00;98593.78;10443853;28;20127;-75
2024/03/27 11:08:26;;;;;;;5.40;4.90;;;;;;;10.63;100.00;98582.66;10459080;28;20037;-74
2024/03/27 11:13:28;;;;;;;4.18;3.88;;;;;;;10.56;100.00;98586.59;10459789;28;20395;-74
2024/03/27 11:18:32;;;;;;;5.72;5.22;;;;;;;10.48;100.00;98596.81;10458472;28;20372;-74
2024/03/27 11:23:33;;;;;;;4.97;4.63;;;;;;;10.74;100.00;98583.56;10457400;28;20067;-74
2024/03/27 11:28:33;;;;;;;7.57;4.90;;;;;;;11.26;100.00;98591.06;10458523;28;20044;-74
2024/03/27 11:33:34;;;;;;;9.15;5.55;;;;;;;11.83;100.00;98587.66;10457399;28;20036;-73
2024/03/27 11:38:34;;;;;;;5.45;4.97;;;;;;;12.96;100.00;98601.72;10456544;28;20032;-73
2024/03/27 11:43:34;;;;;;;5.13;4.70;;;;;;;13.63;100.00;98616.97;10457437;28;20040;-75
2024/03/27 11:48:35;;;;;;;5.18;4.80;;;;;;;13.30;100.00;98591.16;10456946;28;20082;-73
2024/03/27 11:53:36;;;;;;;8.32;6.35;;;;;;;12.79;100.00;98608.19;10457925;28;20059;-75
2024/03/27 11:58:37;;;;;;;10.02;6.75;;;;;;;12.25;100.00;98611.28;10473225;28;20393;-74
2024/03/27 12:03:38;;;;;;;6.57;5.97;;;;;;;12.44;100.00;98610.78;10457793;28;20028;-75
2024/03/27 12:08:39;;;;;;;6.07;5.50;;;;;;;12.68;100.00;98616.56;10439928;28;20067;-74
2024/03/27 12:13:40;;;;;;;10.32;6.10;;;;;;;13.00;100.00;98603.59;10441226;28;20041;-74
2024/03/27 12:18:41;;;;;;;5.50;5.00;;;;;;;13.03;100.00;98613.94;10457253;28;20075;-75
2024/03/27 12:23:43;;;;;;;7.50;5.30;;;;;;;12.94;100.00;98603.88;10440021;28;20025;-74
2024/03/27 12:28:44;;;;;;;6.40;5.80;;;;;;;13.37;100.00;98613.47;10456281;28;20143;-74
2024/03/27 12:33:44;;;;;;;5.68;5.15;;;;;;;14.64;100.00;98616.97;10457150;28;20036;-74
2024/03/27 12:38:45;;;;;;;8.15;5.35;;;;;;;14.71;100.00;98603.03;10456634;28;20029;-73
2024/03/27 12:43:45;;;;;;;8.05;5.85;;;;;;;13.94;100.00;98608.75;10454598;28;20024;-73
2024/03/27 12:48:45;;;;;;;6.57;5.95;;;;;;;13.34;100.00;98596.88;10454184;28;20552;-73
2024/03/27 12:53:46;;;;;;;5.63;4.53;;;;;;;13.19;100.00;98600.38;10455086;28;20059;-74
2024/03/27 12:58:46;;;;;;;5.63;5.15;;;;;;;13.69;100.00;98604.19;10456888;28;20033;-74
2024/03/27 13:03:47;;;;;;;8.07;5.05;;;;;;;14.59;100.00;98615.09;10456669;28;20359;-74
2024/03/27 13:08:47;;;;;;;6.05;5.30;;;;;;;14.79;100.00;98595.09;10454706;28;20025;-75
2024/03/27 13:13:47;;;;;;;4.80;4.32;;;;;;;14.82;87.86;98610.09;10455368;28;20045;-73
2024/03/27 13:18:48;;;;;;;7.43;4.85;;;;;;;14.84;87.58;98602.44;10453674;28;20345;-74
2024/03/27 13:23:48;;;;;;;4.88;4.47;;;;;;;13.85;98.52;98607.72;10455432;28;20029;-75
2024/03/27 13:28:49;;;;;;;5.50;5.07;;;;;;;13.32;100.00;98599.84;10456938;28;20029;-73
2024/03/27 13:33:49;;;;;;;7.35;4.78;;;;;;;13.27;100.00;98599.84;10464505;28;20036;-75
2024/03/27 13:38:50;;;;;;;4.10;3.75;;;;;;;12.57;96.01;98611.13;10463860;28;20033;-72
2024/03/27 13:43:50;;;;;;;4.78;4.35;;;;;;;12.75;100.00;98588.06;10463765;28;20067;-72
2024/03/27 13:48:53;;;;;;;4.55;4.20;;;;;;;12.64;97.38;98589.16;10465586;28;20049;-74
2024/03/27 13:53:53;;;;;;;4.47;4.07;;;;;;;12.48;100.00;98606.47;10463501;28;20028;-73
2024/03/27 13:58:54;;;;;;;3.90;3.50;;;;;;;12.65;100.00;98615.22;10464179;28;20045;-74
2024/03/27 14:03:54;;;;;;;4.00;3.70;;;;;;;13.96;94.83;98585.63;10462147;28;20041;-75
2024/03/27 14:08:54;;;;;;;5.35;4.75;;;;;;;13.88;91.43;98605.25;10461603;28;20037;-73
2024/03/27 14:13:55;;;;;;;4.40;4.00;;;;;;;13.64;89.54;98613.16;10462388;28;20080;-73
2024/03/27 14:18:55;;;;;;;4.63;4.22;;;;;;;13.66;85.90;98608.28;10461217;28;20025;-73
2024/03/27 14:23:56;;;;;;;5.88;5.05;;;;;;;13.56;93.30;98602.84;10463216;28;20036;-76
2024/03/27 14:28:56;;;;;;;3.42;3.22;;;;;;;13.55;93.97;98587.59;10464448;28;20025;-74
2024/03/27 14:33:56;;;;;;;5.00;4.03;;;;;;;13.94;87.46;98590.53;10461561;28;20040;-73
2024/03/27 14:38:57;;;;;;;5.35;4.13;;;;;;;13.91;90.48;98584.81;10460003;28;20025;-74
2024/03/27 14:43:58;;;;;;;4.47;3.78;;;;;;;13.97;88.09;98594.59;10458877;28;20040;-74
2024/03/27 14:48:59;;;;;;;5.30;4.80;;;;;;;13.61;89.99;98602.81;10461398;28;20049;-73
2024/03/27 14:53:59;;;;;;;4.32;3.47;;;;;;;13.44;90.16;98581.38;10462737;28;20444;-73
2024/03/27 14:58:59;;;;;;;4.13;3.28;;;;;;;13.22;89.85;98575.38;10476752;28;20065;-72
2024/03/27 15:04:00;;;;;;;5.85;3.45;;;;;;;12.93;89.88;98589.47;10460614;28;20039;-73
2024/03/27 15:09:02;;;;;;;4.22;3.30;;;;;;;12.64;78.78;98596.47;10477121;28;20025;-76
2024/03/27 15:14:02;;;;;;;2.65;2.45;;;;;;;12.57;80.61;98594.00;10458916;28;20140;-74
2024/03/27 15:19:03;;;;;;;2.65;2.45;;;;;;;12.49;79.77;98586.38;10459564;28;20033;-74
2024/03/27 15:24:04;;;;;;;2.88;2.60;;;;;;;12.38;76.43;98590.13;10458243;28;20049;-73
2024/03/27 15:29:04;;;;;;;2.58;2.38;;;;;;;12.36;75.80;98581.47;10457237;28;20037;-74
2024/03/27 15:34:04;;;;;;;2.55;2.38;;;;;;;12.33;82.60;98580.09;10458147;28;20106;-74
2024/03/27 15:39:05;;;;;;;2.53;2.33;;;;;;;12.32;81.67;98571.13;10457325;28;20486;-74
2024/03/27 15:44:05;;;;;;;3.33;2.22;;;;;;;12.30;85.95;98573.28;10457596;28;20037;-71
2024/03/27 15:49:06;;;;;;;2.50;2.30;;;;;;;11.80;77.19;98590.91;10459018;28;20021;-75
2024/03/27 15:54:06;;;;;;;3.08;2.28;;;;;;;11.76;82.84;98578.97;10457038;28;20033;-74
2024/03/27 15:59:06;;;;;;;2.75;2.42;;;;;;;11.57;79.12;98564.19;10456049;28;20029;-73
2024/03/27 16:04:07;;;;;;;3.63;3.28;;;;;;;11.64;84.01;98572.91;10457022;28;20029;-74
2024/03/27 16:09:07;;;;;;;1.75;1.65;;;;;;;11.58;85.53;98574.78;10457800;28;20468;-74
2024/03/27 16:14:07;;;;;;;3.35;1.88;;;;;;;11.40;82.63;98564.38;10456196;28;20061;-74
2024/03/27 16:19:08;;;;;;;3.38;2.53;;;;;;;11.33;84.78;98564.59;10455328;28;20116;-73
2024/03/27 16:24:08;;;;;;;2.08;1.98;;;;;;;11.50;89.42;98564.44;10456194;28;20369;-73
2024/03/27 16:29:09;;;;;;;5.05;3.47;;;;;;;11.54;88.64;98579.09;10458242;28;20025;-73
2024/03/27 16:34:09;;;;;;;3.95;2.70;;;;;;;11.69;87.20;98580.28;10456904;28;20106;-73
2024/03/27 16:39:09;;;;;;;3.90;2.80;;;;;;;11.96;88.47;98578.28;10455804;28;20032;-75
2024/03/27 16:44:10;;;;;;;2.95;2.63;;;;;;;12.14;84.10;98587.06;10457962;28;20517;-74
2024/03/27 16:49:10;;;;;;;4.13;2.72;;;;;;;11.93;81.39;98588.84;10458637;28;20120;-73
2024/03/27 16:54:11;;;;;;;4.38;3.97;;;;;;;11.80;82.61;98590.91;10458879;28;20060;-75
2024/03/27 16:59:11;;;;;;;2.13;2.03;;;;;;;11.80;85.01;98595.50;10455925;28;20083;-75
2024/03/27 17:04:12;;;;;;;5.65;4.05;;;;;;;11.85;83.86;98599.13;10457433;28;20044;-74
2024/03/27 17:09:12;;;;;;;2.53;2.42;;;;;;;12.00;83.27;98597.56;10463729;28;20087;-72
2024/03/27 17:14:14;;;;;;;2.63;2.42;;;;;;;12.14;82.98;98590.59;10465260;28;20441;-73
2024/03/27 17:19:15;;;;;;;4.03;3.13;;;;;;;11.89;84.03;98585.03;10462107;28;20024;-74
2024/03/27 17:24:15;;;;;;;3.20;2.38;;;;;;;11.94;86.96;98604.06;10463615;28;20032;-73
2024/03/27 17:29:15;;;;;;;6.25;2.70;;;;;;;11.90;86.65;98592.06;10463694;28;20025;-76
2024/03/27 17:34:17;;;;;;;13.15;3.20;;;;;;;11.58;87.23;98577.50;10463718;28;20465;-74
2024/03/27 17:39:17;;;;;;;6.55;3.70;;;;;;;11.33;88.30;98585.44;10463398;28;20033;-73
2024/03/27 17:44:17;;;;;;;4.40;3.47;;;;;;;11.18;89.54;98588.84;10461917;28;20036;-73
2024/03/27 17:49:18;;;;;;;5.10;3.90;;;;;;;11.03;90.69;98594.13;10462345;28;20017;-74
2024/03/27 17:54:18;;;;;;;4.45;3.28;;;;;;;10.85;92.24;98601.56;10461747;28;20029;-75
2024/03/27 17:59:18;;;;;;;3.47;3.17;;;;;;;10.68;93.52;98598.09;10462576;28;20104;-73
2024/03/27 18:04:19;;;;;;;6.20;3.63;;;;;;;10.53;92.83;98592.53;10461433;28;20090;-72
2024/03/27 18:09:19;;;;;;;2.92;2.67;;;;;;;10.44;90.35;98593.00;10462556;28;20036;-73
2024/03/27 18:14:20;;;;;;;5.25;2.45;;;;;;;10.26;89.35;98606.84;10463060;28;20056;-72
2024/03/27 18:19:20;;;;;;;2.42;2.00;;;;;;;10.25;90.22;98607.88;10462874;28;20360;-75
2024/03/27 18:24:21;;;;;;;2.05;1.95;;;;;;;10.18;91.79;98612.66;10461685;28;20029;-72
2024/03/27 18:29:22;;;;;;;3.35;2.70;;;;;;;10.13;93.90;98613.41;10463632;28;20033;-73
2024/03/27 18:34:23;;;;;;;2.30;2.10;;;;;;;10.00;96.30;98617.28;10461081;28;20154;-74
2024/03/27 18:39:23;;;;;;;1.42;1.40;;;;;;;9.95;96.42;98603.69;10461258;28;20029;-75
2024/03/27 18:44:24;;;;;;;3.50;2.22;;;;;;;9.96;95.64;98604.53;10460454;28;20037;-74
2024/03/27 18:49:24;;;;;;;4.60;2.40;;;;;;;9.86;96.34;98601.66;10462078;28;20056;-75
2024/03/27 18:54:25;;;;;;;2.70;2.03;;;;;;;9.74;97.10;98596.38;10460419;28;20029;-73
2024/03/27 18:59:25;;;;;;;1.90;1.80;;;;;;;9.64;98.08;98586.25;10460936;28;20115;-74
2024/03/27 19:04:25;;;;;;;1.88;1.73;;;;;;;9.61;97.88;98581.34;10461250;28;20024;-73
2024/03/27 19:09:26;;;;;;;2.90;2.38;;;;;;;9.50;98.64;98574.94;10458931;28;20024;-76
2024/03/27 19:14:26;;;;;;;1.70;1.60;;;;;;;9.38;100.00;98574.25;10459179;28;20057;-73
2024/03/27 19:19:27;;;;;;;3.50;3.17;;;;;;;9.34;100.00;98578.47;10458266;28;20055;-73
2024/03/27 19:24:28;;;;;;;3.72;3.15;;;;;;;9.23;100.00;98582.91;10459056;28;20036;-73
2024/03/27 19:29:28;;;;;;;3.42;2.95;;;;;;;9.18;100.00;98582.00;10458948;28;20402;-73
2024/03/27 19:34:29;;;;;;;3.60;2.20;;;;;;;9.22;100.00;98577.75;10459974;28;20032;-73
2024/03/27 19:39:30;;;;;;;4.35;2.17;;;;;;;9.11;100.00;98554.34;10456183;28;20465;-73
2024/03/27 19:44:30;;;;;;;6.53;2.75;;;;;;;9.11;100.00;98562.47;10456457;28;20444;-77
2024/03/27 19:49:30;;;;;;;5.35;2.25;;;;;;;9.07;100.00;98589.94;10456754;28;20039;-77
2024/03/27 19:54:31;;;;;;;11.18;2.70;;;;;;;8.94;100.00;98605.66;10457228;28;20116;-74
2024/03/27 19:59:31;;;;;;;1.67;1.58;;;;;;;8.88;100.00;98614.72;10455732;28;20059;-77
2024/03/27 20:04:32;;;;;;;1.83;1.73;;;;;;;8.80;100.00;98624.81;10455403;28;20334;-77
2024/03/27 20:09:32;;;;;;;3.33;1.92;;;;;;;8.91;100.00;98617.75;10456040;28;20035;-76
2024/03/27 20:14:34;;;;;;;4.50;2.25;;;;;;;8.90;100.00;98626.06;10457461;28;20135;-76
2024/03/27 20:19:35;;;;;;;1.88;1.77;;;;;;;8.83;100.00;98599.22;10454178;28;20036;-76
2024/03/27 20:24:35;;;;;;;2.25;2.08;;;;;;;8.74;100.00;98598.81;10437626;28;20143;-76
2024/03/27 20:29:36;;;;;;;1.42;1.35;;;;;;;8.81;100.00;98598.66;10455647;28;20036;-74
2024/03/27 20:34:36;;;;;;;2.10;1.80;;;;;;;9.08;100.00;98601.56;10454635;28;20071;-74
2024/03/27 20:39:36;;;;;;;5.80;2.05;;;;;;;9.14;100.00;98597.06;10456292;28;20025;-74
2024/03/27 20:44:37;;;;;;;1.10;1.10;;;;;;;9.18;100.00;98588.22;10453848;28;20033;-73
2024/03/27 20:49:37;;;;;;;1.45;1.13;;;;;;;9.27;100.00;98591.34;10455500;28;20029;-74
2024/03/27 20:54:39;;;;;;;1.88;1.75;;;;;;;9.32;100.00;98580.63;10454371;28;20441;-72
2024/03/27 20:59:39;;;;;;;1.67;1.58;;;;;;;9.37;100.00;98575.28;10454613;28;20025;-72
2024/03/27 21:04:40;;;;;;;1.48;1.38;;;;;;;9.36;100.00;98573.66;10456061;28;20107;-75
2024/03/27 21:09:50;;;;;;;1.52;1.50;;;;;;;9.37;100.00;98566.38;10455259;28;20346;-72
2024/03/27 21:14:50;;;;;;;1.35;1.30;;;;;;;9.40;100.00;98571.28;10459806;28;20045;-73
2024/03/27 21:19:51;;;;;;;2.05;1.95;;;;;;;9.49;100.00;98567.91;10462742;28;20063;-75
2024/03/27 21:24:51;;;;;;;2.00;1.90;;;;;;;9.49;100.00;98561.69;10460454;28;20061;-72
2024/03/27 21:29:52;;;;;;;2.65;2.20;;;;;;;9.50;100.00;98569.53;10462794;28;20029;-75
2024/03/27 21:34:55;;;;;;;2.03;1.92;;;;;;;9.51;100.00;98552.28;10462074;28;20033;-74
2024/03/27 21:39:56;;;;;;;3.80;1.77;;;;;;;9.44;100.00;98529.19;10461356;28;20036;-72
2024/03/27 21:44:56;;;;;;;1.92;1.83;;;;;;;9.49;100.00;98542.78;10463021;28;20044;-75
2024/03/27 21:49:58;;;;;;;2.75;2.08;;;;;;;9.52;100.00;98528.78;10462374;28;20041;-74
2024/03/27 21:54:58;;;;;;;3.03;2.25;;;;;;;9.50;100.00;98531.72;10428990;28;20104;-72
2024/03/27 21:59:59;;;;;;;1.65;1.55;;;;;;;9.50;100.00;98533.59;10462641;28;20032;-74
2024/03/27 22:04:59;;;;;;;1.75;1.65;;;;;;;9.45;100.00;98534.38;10461656;28;20033;-73
2024/03/27 22:09:59;;;;;;;4.28;2.22;;;;;;;9.40;100.00;98528.88;10460399;28;20037;-75
2024/03/27 22:15:00;;;;;;;2.58;2.45;;;;;;;9.34;100.00;98527.16;10443984;28;20048;-76
2024/03/27 22:20:01;;;;;;;1.77;1.65;;;;;;;9.35;100.00;98528.81;10459986;28;20113;-74
2024/03/27 22:25:02;;;;;;;2.22;1.98;;;;;;;9.42;100.00;98525.94;10460645;28;20033;-74
2024/03/27 22:30:04;;;;;;;2.10;1.90;;;;;;;9.35;100.00;98520.72;10460950;28;20045;-73
2024/03/27 22:35:05;;;;;;;1.80;1.70;;;;;;;9.39;100.00;98512.94;10459030;28;20590;-74
2024/03/27 22:40:06;;;;;;;2.30;2.20;;;;;;;9.35;100.00;98523.41;10460276;28;20064;-73
2024/03/27 22:45:07;;;;;;;2.60;2.40;;;;;;;9.38;100.00;98522.06;10460820;28;20031;-75
2024/03/27 22:50:07;;;;;;;1.15;1.15;;;;;;;9.40;100.00;98511.84;10459929;28;20378;-73
2024/03/27 22:55:10;;;;;;;1.73;1.65;;;;;;;9.29;100.00;98503.63;10459825;28;20040;-75
2024/03/27 23:00:18;;;;;;;2.00;1.90;;;;;;;9.33;100.00;98503.94;10460510;28;20360;-74
2024/03/27 23:05:19;;;;;;;2.60;2.00;;;;;;;9.32;100.00;98495.00;10458960;28;20161;-75
2024/03/27 23:10:19;;;;;;;6.78;1.48;;;;;;;9.28;100.00;98480.38;10459065;28;20445;-75